Map

Track Data

SID SEASON NUMBER BASIN SUBBASIN NAME ISO_TIME NATURE LAT LON WMO_WIND WMO_PRES WMO_AGENCY TRACK_TYPE DIST2LAND LANDFALL IFLAG USA_AGENCY USA_ATCF_ID USA_LAT USA_LON USA_RECORD USA_STATUS USA_WIND USA_PRES USA_SSHS USA_R34_NE USA_R34_SE USA_R34_SW USA_R34_NW USA_R50_NE USA_R50_SE USA_R50_SW USA_R50_NW USA_R64_NE USA_R64_SE USA_R64_SW USA_R64_NW USA_POCI USA_ROCI USA_RMW USA_EYE TOKYO_LAT TOKYO_LON TOKYO_GRADE TOKYO_WIND TOKYO_PRES TOKYO_R50_DIR TOKYO_R50_LONG TOKYO_R50_SHORT TOKYO_R30_DIR TOKYO_R30_LONG TOKYO_R30_SHORT TOKYO_LAND CMA_LAT CMA_LON CMA_CAT CMA_WIND CMA_PRES HKO_LAT HKO_LON HKO_CAT HKO_WIND HKO_PRES NEWDELHI_LAT NEWDELHI_LON NEWDELHI_GRADE NEWDELHI_WIND NEWDELHI_PRES NEWDELHI_CI NEWDELHI_DP NEWDELHI_POCI REUNION_LAT REUNION_LON REUNION_TYPE REUNION_WIND REUNION_PRES REUNION_TNUM REUNION_CI REUNION_RMW REUNION_R34_NE REUNION_R34_SE REUNION_R34_SW REUNION_R34_NW REUNION_R50_NE REUNION_R50_SE REUNION_R50_SW REUNION_R50_NW REUNION_R64_NE REUNION_R64_SE REUNION_R64_SW REUNION_R64_NW BOM_LAT BOM_LON BOM_TYPE BOM_WIND BOM_PRES BOM_TNUM BOM_CI BOM_RMW BOM_R34_NE BOM_R34_SE BOM_R34_SW BOM_R34_NW BOM_R50_NE BOM_R50_SE BOM_R50_SW BOM_R50_NW BOM_R64_NE BOM_R64_SE BOM_R64_SW BOM_R64_NW BOM_ROCI BOM_POCI BOM_EYE BOM_POS_METHOD BOM_PRES_METHOD NADI_LAT NADI_LON NADI_CAT NADI_WIND NADI_PRES WELLINGTON_LAT WELLINGTON_LON WELLINGTON_WIND WELLINGTON_PRES DS824_LAT DS824_LON DS824_STAGE DS824_WIND DS824_PRES TD9636_LAT TD9636_LON TD9636_STAGE TD9636_WIND TD9636_PRES TD9635_LAT TD9635_LON TD9635_WIND TD9635_PRES TD9635_ROCI NEUMANN_LAT NEUMANN_LON NEUMANN_CLASS NEUMANN_WIND NEUMANN_PRES MLC_LAT MLC_LON MLC_CLASS MLC_WIND MLC_PRES USA_GUST BOM_GUST BOM_GUST_PER REUNION_GUST REUNION_GUST_PER USA_SEAHGT USA_SEARAD_NE USA_SEARAD_SE USA_SEARAD_SW USA_SEARAD_NW STORM_SPEED STORM_DIR
1920268N33303 1920 43 NA NA NOT_NAMED 1920-09-23 12:00:00 TS 32.5000 -57.0000 30 hurdat_atl main 1421 1411 O_____________ hurdat_atl AL041920 32.5000 -57.0000 TD 30 -1 3 12
1920268N33303 1920 43 NA NA NOT_NAMED 1920-09-23 15:00:00 TS 32.6500 -56.9500 main 1402 1396 P_____________ AL041920 32.6500 -56.9500 TD 30 -1 3 16
1920268N33303 1920 43 NA NA NOT_NAMED 1920-09-23 18:00:00 TS 32.8000 -56.9000 30 hurdat_atl main 1396 1387 O_____________ hurdat_atl AL041920 32.8000 -56.9000 TD 30 -1 3 16
1920268N33303 1920 43 NA NA NOT_NAMED 1920-09-23 21:00:00 TS 32.9500 -56.8500 main 1382 1372 P_____________ AL041920 32.9500 -56.8500 TD 32 -1 3 14
1920268N33303 1920 43 NA NA NOT_NAMED 1920-09-24 00:00:00 TS 33.1000 -56.8000 35 hurdat_atl main 1372 1353 O_____________ hurdat_atl AL041920 33.1000 -56.8000 TS 35 0 3 13
1920268N33303 1920 43 NA NA NOT_NAMED 1920-09-24 03:00:00 TS 33.2650 -56.7575 main 1353 1348 P_____________ AL041920 33.2650 -56.7575 TS 35 0 3 14
1920268N33303 1920 43 NA NA NOT_NAMED 1920-09-24 06:00:00 TS 33.4000 -56.7000 35 hurdat_atl main 1348 1343 O_____________ hurdat_atl AL041920 33.4000 -56.7000 TS 35 0 2 32
1920268N33303 1920 43 NA NA NOT_NAMED 1920-09-24 09:00:00 TS 33.4725 -56.6075 main 1343 1343 P_____________ AL041920 33.4725 -56.6075 TS 37 0 2 59
1920268N33303 1920 43 NA NA NOT_NAMED 1920-09-24 12:00:00 TS 33.5000 -56.5000 40 hurdat_atl main 1348 1348 O_____________ hurdat_atl AL041920 33.5000 -56.5000 TS 40 0 2 79
1920268N33303 1920 43 NA NA NOT_NAMED 1920-09-24 15:00:00 TS 33.5075 -56.4000 main 1353 1353 P_____________ AL041920 33.5075 -56.4000 TS 40 0 2 90
1920268N33303 1920 43 NA NA NOT_NAMED 1920-09-24 18:00:00 TS 33.5000 -56.3000 40 hurdat_atl main 1358 1358 O_____________ hurdat_atl AL041920 33.5000 -56.3000 TS 40 0 2 93
1920268N33303 1920 43 NA NA NOT_NAMED 1920-09-24 21:00:00 TS 33.5000 -56.2075 main 1363 1363 P_____________ AL041920 33.5000 -56.2075 TS 40 0 2 90
1920268N33303 1920 43 NA NA NOT_NAMED 1920-09-25 00:00:00 TS 33.5000 -56.1000 40 hurdat_atl main 1368 1368 O_____________ hurdat_atl AL041920 33.5000 -56.1000 TS 40 0 2 90
1920268N33303 1920 43 NA NA NOT_NAMED 1920-09-25 03:00:00 TS 33.5000 -55.9575 main 1373 1373 P_____________ AL041920 33.5000 -55.9575 TS 40 0 2 90
1920268N33303 1920 43 NA NA NOT_NAMED 1920-09-25 06:00:00 TS 33.5000 -55.8000 40 hurdat_atl main 1378 1378 O_____________ hurdat_atl AL041920 33.5000 -55.8000 TS 40 0 3 87
1920268N33303 1920 43 NA NA NOT_NAMED 1920-09-25 09:00:00 TS 33.5150 -55.6501 main 1381 1381 P_____________ AL041920 33.5150 -55.6501 TS 40 0 2 90
1920268N33303 1920 43 NA NA NOT_NAMED 1920-09-25 12:00:00 TS 33.5000 -55.5000 40 hurdat_atl main 1387 1387 O_____________ hurdat_atl AL041920 33.5000 -55.5000 TS 40 0 3 110
1920268N33303 1920 43 NA NA NOT_NAMED 1920-09-25 15:00:00 TS 33.4225 -55.3500 main 1403 1403 P_____________ AL041920 33.4225 -55.3500 TS 40 0 3 128
1920268N33303 1920 43 NA NA NOT_NAMED 1920-09-25 18:00:00 TS 33.3000 -55.2000 40 hurdat_atl main 1417 1417 O_____________ hurdat_atl AL041920 33.3000 -55.2000 TS 40 0 4 137
1920268N33303 1920 43 NA NA NOT_NAMED 1920-09-25 21:00:00 TS 33.1575 -55.0576 main 1430 1430 P_____________ AL041920 33.1575 -55.0576 TS 40 0 4 140
1920268N33303 1920 43 NA NA NOT_NAMED 1920-09-26 00:00:00 TS 33.0000 -54.9000 40 hurdat_atl main 1457 1457 O_____________ hurdat_atl AL041920 33.0000 -54.9000 TS 40 0 4 138
1920268N33303 1920 43 NA NA NOT_NAMED 1920-09-26 03:00:00 TS 32.8425 -54.7150 main 1485 1485 P_____________ AL041920 32.8425 -54.7150 TS 40 0 5 132
1920268N33303 1920 43 NA NA NOT_NAMED 1920-09-26 06:00:00 TS 32.7000 -54.5000 40 hurdat_atl main 1502 1502 O_____________ hurdat_atl AL041920 32.7000 -54.5000 TS 40 0 5 126
1920268N33303 1920 43 NA NA NOT_NAMED 1920-09-26 09:00:00 TS 32.5773 -54.2800 main 1519 1519 P_____________ AL041920 32.5773 -54.2800 TS 40 0 5 115
1920268N33303 1920 43 NA NA NOT_NAMED 1920-09-26 12:00:00 TS 32.5000 -54.0000 40 hurdat_atl main 1539 1539 O_____________ hurdat_atl AL041920 32.5000 -54.0000 TS 40 0 6 100
1920268N33303 1920 43 NA NA NOT_NAMED 1920-09-26 15:00:00 TS 32.4774 -53.6375 main 1553 1553 P_____________ AL041920 32.4774 -53.6375 TS 40 0 7 90
1920268N33303 1920 43 NA NA NOT_NAMED 1920-09-26 18:00:00 TS 32.5000 -53.2000 40 hurdat_atl main 1567 1567 O_____________ hurdat_atl AL041920 32.5000 -53.2000 TS 40 0 8 86
1920268N33303 1920 43 NA NA NOT_NAMED 1920-09-26 21:00:00 TS 32.5349 -52.7224 main 1569 1559 P_____________ AL041920 32.5349 -52.7224 TS 37 0 8 83
1920268N33303 1920 43 NA NA NOT_NAMED 1920-09-27 00:00:00 TS 32.6000 -52.2000 35 hurdat_atl main 1560 1550 O_____________ hurdat_atl AL041920 32.6000 -52.2000 TS 35 0 9 80
1920268N33303 1920 43 NA NA NOT_NAMED 1920-09-27 03:00:00 TS 32.6924 -51.6575 main 1552 1544 P_____________ AL041920 32.6924 -51.6575 TS 35 0 9 78
1920268N33303 1920 43 NA NA NOT_NAMED 1920-09-27 06:00:00 TS 32.8000 -51.1000 35 hurdat_atl main 1546 1538 O_____________ hurdat_atl AL041920 32.8000 -51.1000 TS 35 0 9 78
1920268N33303 1920 43 NA NA NOT_NAMED 1920-09-27 09:00:00 TS 32.8847 -50.5570 main 1540 1534 P_____________ AL041920 32.8847 -50.5570 TS 32 -1 9 78
1920268N33303 1920 43 NA NA NOT_NAMED 1920-09-27 12:00:00 TS 33.0000 -50.0000 30 hurdat_atl main 1537 1523 O_____________ hurdat_atl AL041920 33.0000 -50.0000 TD 30 -1 10 73
1920268N33303 1920 43 NA NA NOT_NAMED 1920-09-27 15:00:00 TS 33.1807 -49.4109 main 1525 1513 P_____________ AL041920 33.1807 -49.4109 TD 27 -1 11 68
1920268N33303 1920 43 NA NA NOT_NAMED 1920-09-27 18:00:00 ET 33.4000 -48.8000 25 hurdat_atl main 1515 O_____________ hurdat_atl AL041920 33.4000 -48.8000 EX 25 -4 11 67

About IBTrACS Database

This database is a web-friendly format of International Best Track Archive for Climate Stewardship (IBTrACS), a global best track data archive curated by NOAA dating back to 1842.

Updated: 2021-12-01